VLG5QQ LFMN-LEBL
Flight info
| Callsign | VLG5QQ |
|---|---|
| Flight time | N/A |
| Altitude | 30000 |
| Route | EPOLO DCT SOFFY/N0465F290 DCT NILDU DCT BISBA |
| Aircraft | A320/M-SDE3FGHIRWY/LB1 |
Departure
| Time | 2026-05-07 13:10 |
|---|---|
| Airport | Nice-Côte d'Azur Airport (LFMN) |
Arrival
| Time | N/A |
|---|---|
| Airport | Josep Tarradellas Barcelona-El Prat Airport (LEBL) |
| Time | Latitude | Longitude | Altitude | Speed | Heading |
|---|---|---|---|---|---|
| 2026-05-07 12:52 | 43.66426 | 7.21408 | 24 ft | 0 kts | 351° |
| 2026-05-07 13:02 | 43.66423 | 7.21409 | 21 ft | 3 kts | 351° |
| 2026-05-07 13:02 | 43.66397 | 7.21415 | 21 ft | 4 kts | 351° |
| 2026-05-07 13:02 | 43.66375 | 7.21420 | 21 ft | 4 kts | 340° |
| 2026-05-07 13:02 | 43.66357 | 7.21437 | 22 ft | 4 kts | 282° |
| 2026-05-07 13:03 | 43.66362 | 7.21464 | 21 ft | 4 kts | 230° |
| 2026-05-07 13:03 | 43.66371 | 7.21479 | 21 ft | 0 kts | 233° |
| 2026-05-07 13:05 | 43.66368 | 7.21474 | 21 ft | 2 kts | 233° |
| 2026-05-07 13:05 | 43.66350 | 7.21438 | 21 ft | 10 kts | 236° |
| 2026-05-07 13:05 | 43.66290 | 7.21350 | 21 ft | 14 kts | 224° |
| 2026-05-07 13:06 | 43.66213 | 7.21246 | 21 ft | 17 kts | 224° |
| 2026-05-07 13:06 | 43.66125 | 7.21123 | 21 ft | 19 kts | 225° |
| 2026-05-07 13:06 | 43.66017 | 7.21055 | 21 ft | 19 kts | 169° |
| 2026-05-07 13:06 | 43.65910 | 7.21084 | 23 ft | 16 kts | 210° |
| 2026-05-07 13:07 | 43.65822 | 7.20972 | 21 ft | 19 kts | 223° |
| 2026-05-07 13:07 | 43.65727 | 7.20833 | 21 ft | 21 kts | 226° |
| 2026-05-07 13:07 | 43.65616 | 7.20683 | 21 ft | 24 kts | 225° |
| 2026-05-07 13:07 | 43.65494 | 7.20515 | 21 ft | 26 kts | 225° |
| 2026-05-07 13:08 | 43.65373 | 7.20349 | 21 ft | 19 kts | 225° |
| 2026-05-07 13:08 | 43.65269 | 7.20305 | 22 ft | 18 kts | 149° |
| 2026-05-07 13:08 | 43.65175 | 7.20430 | 22 ft | 20 kts | 134° |
| 2026-05-07 13:08 | 43.65073 | 7.20570 | 21 ft | 22 kts | 135° |
| 2026-05-07 13:09 | 43.65005 | 7.20697 | 24 ft | 14 kts | 78° |
| 2026-05-07 13:09 | 43.65138 | 7.20884 | 21 ft | 58 kts | 45° |
| 2026-05-07 13:09 | 43.65589 | 7.21509 | 24 ft | 122 kts | 45° |
| 2026-05-07 13:09 | 43.66304 | 7.22509 | 89 ft | 163 kts | 46° |
| 2026-05-07 13:10 | 43.66917 | 7.23788 | 680 ft | 161 kts | 87° |
| 2026-05-07 13:10 | 43.66643 | 7.25221 | 1337 ft | 162 kts | 125° |
| 2026-05-07 13:10 | 43.65792 | 7.26392 | 1706 ft | 183 kts | 137° |
| 2026-05-07 13:10 | 43.64794 | 7.27632 | 2095 ft | 203 kts | 139° |
| 2026-05-07 13:11 | 43.63737 | 7.29001 | 2753 ft | 212 kts | 137° |
| 2026-05-07 13:11 | 43.62657 | 7.30437 | 3536 ft | 218 kts | 136° |
| 2026-05-07 13:11 | 43.61560 | 7.31910 | 4328 ft | 223 kts | 137° |
| 2026-05-07 13:11 | 43.60287 | 7.33086 | 5063 ft | 227 kts | 166° |
| 2026-05-07 13:12 | 43.58726 | 7.33059 | 5815 ft | 228 kts | 202° |
| 2026-05-07 13:12 | 43.57352 | 7.31963 | 6615 ft | 229 kts | 215° |
| 2026-05-07 13:12 | 43.56023 | 7.30732 | 7422 ft | 231 kts | 215° |
| 2026-05-07 13:12 | 43.54683 | 7.29490 | 8247 ft | 233 kts | 215° |
| 2026-05-07 13:13 | 43.53329 | 7.28241 | 9083 ft | 235 kts | 215° |
| 2026-05-07 13:13 | 43.51943 | 7.26969 | 9745 ft | 248 kts | 214° |
| 2026-05-07 13:13 | 43.50440 | 7.25590 | 10092 ft | 271 kts | 214° |
| 2026-05-07 13:13 | 43.48799 | 7.24091 | 10368 ft | 295 kts | 214° |
| 2026-05-07 13:14 | 43.47026 | 7.22478 | 10614 ft | 318 kts | 214° |
| 2026-05-07 13:14 | 43.45130 | 7.20754 | 10812 ft | 341 kts | 214° |
| 2026-05-07 13:14 | 43.43114 | 7.18924 | 11341 ft | 350 kts | 214° |
| 2026-05-07 13:14 | 43.41074 | 7.17069 | 12006 ft | 354 kts | 214° |
| 2026-05-07 13:15 | 43.39008 | 7.15193 | 12712 ft | 358 kts | 214° |
| 2026-05-07 13:15 | 43.36923 | 7.13300 | 13479 ft | 360 kts | 214° |
| 2026-05-07 13:15 | 43.34824 | 7.11393 | 14230 ft | 363 kts | 214° |
| 2026-05-07 13:15 | 43.32703 | 7.09467 | 14895 ft | 367 kts | 214° |
| 2026-05-07 13:16 | 43.30564 | 7.07529 | 15518 ft | 370 kts | 214° |
| 2026-05-07 13:16 | 43.28397 | 7.05570 | 16108 ft | 374 kts | 214° |
| 2026-05-07 13:16 | 43.26215 | 7.03603 | 16722 ft | 376 kts | 214° |
| 2026-05-07 13:16 | 43.24018 | 7.01625 | 17303 ft | 379 kts | 214° |
| 2026-05-07 13:17 | 43.21795 | 6.99628 | 17735 ft | 383 kts | 214° |
| 2026-05-07 13:17 | 43.19560 | 6.97619 | 18318 ft | 386 kts | 214° |
| 2026-05-07 13:17 | 43.17411 | 6.95397 | 18856 ft | 388 kts | 223° |
| 2026-05-07 13:17 | 43.15520 | 6.92757 | 19423 ft | 389 kts | 228° |
| 2026-05-07 13:18 | 43.13669 | 6.90047 | 20018 ft | 390 kts | 228° |
| 2026-05-07 13:18 | 43.11820 | 6.87362 | 20586 ft | 392 kts | 228° |
| 2026-05-07 13:18 | 43.09942 | 6.84646 | 21142 ft | 393 kts | 228° |
| 2026-05-07 13:18 | 43.08059 | 6.81930 | 21667 ft | 395 kts | 227° |
| 2026-05-07 13:19 | 43.06165 | 6.79201 | 22177 ft | 397 kts | 228° |
| 2026-05-07 13:19 | 43.04257 | 6.76453 | 22688 ft | 398 kts | 228° |
| 2026-05-07 13:19 | 43.02250 | 6.73558 | 23207 ft | 400 kts | 228° |
| 2026-05-07 13:19 | 42.94637 | 6.62601 | 24884 ft | 404 kts | 228° |
| 2026-05-07 13:20 | 42.89335 | 6.49442 | 26463 ft | 406 kts | 261° |
| 2026-05-07 13:20 | 42.90379 | 6.33993 | 27917 ft | 416 kts | 275° |
| 2026-05-07 13:20 | 42.92007 | 6.18403 | 30049 ft | 409 kts | 274° |
| 2026-05-07 13:20 | 42.93583 | 6.03169 | 30012 ft | 413 kts | 274° |
| 2026-05-07 13:21 | 42.95165 | 5.87696 | 29897 ft | 409 kts | 274° |
| 2026-05-07 13:21 | 42.95679 | 5.82659 | 30011 ft | 410 kts | 274° |
| 2026-05-07 13:21 | 42.98254 | 5.57060 | 30016 ft | 412 kts | 274° |
| 2026-05-07 13:22 | 43.01273 | 5.25962 | 30031 ft | 414 kts | 272° |
| 2026-05-07 13:22 | 42.98390 | 5.11354 | 29960 ft | 406 kts | 234° |
| 2026-05-07 13:22 | 42.91544 | 4.99050 | 29970 ft | 406 kts | 234° |
| 2026-05-07 13:23 | 42.78037 | 4.74695 | 30002 ft | 403 kts | 233° |
| 2026-05-07 13:23 | 42.64471 | 4.50467 | 29988 ft | 404 kts | 233° |
| 2026-05-07 13:24 | 42.59541 | 4.41723 | 29998 ft | 405 kts | 233° |
| 2026-05-07 13:24 | 42.56110 | 4.35638 | 30003 ft | 406 kts | 233° |
| 2026-05-07 13:25 | 42.52693 | 4.29600 | 29977 ft | 406 kts | 233° |
| 2026-05-07 13:25 | 42.49266 | 4.23539 | 30030 ft | 403 kts | 233° |
| 2026-05-07 13:26 | 42.45850 | 4.17529 | 30043 ft | 402 kts | 232° |